Sunflower, MS (38778)

11:38 AM CST on February 12, 2016 (GMT -0600)
Bmpproperties | | Change Station
CLOSE
Current Station
Personal Weather Station
Location: Itta Bena, MS
Elevation: 105 ft
Nearby Weather Stations

Elev 105 ft 33.52 °N, 90.42 °W | Updated 7 minutes ago

Clear
Clear
55.6 °F
Feels Like 55.6 °F
N
9.9
Wind Variable Wind from NNE

Today
High -- | Low -- °F
--% Chance of Precip.
Yesterday
High -- | Low -- °F
Precip. -- in
Pressure 30.28 in
Visibility 10.0 miles
Clouds Clear
Dew Point 41 °F
Humidity 58%
Rainfall 0.00 in
Snow Depth Not available.
6:49 AM 5:43 PM
Waxing Crescent, 22% visible
METAR KRNV 121715Z AUTO 33007KT 300V360 10SM CLR 11/02 A3028 RMK AO2 T01100016
Pressure 30.28 in
Visibility 10.0 miles
Clouds Clear
Dew Point 41 °F
Humidity 58%
Rainfall 0.00 in
Snow Depth Not available.
6:49 AM 5:43 PM
Waxing Crescent, 22% visible
METAR KRNV 121715Z AUTO 33007KT 300V360 10SM CLR 11/02 A3028 RMK AO2 T01100016

10-Day Weather Forecast

Almanac

Astronomy

Feb. 12, 2016 Rise Set
Actual Time
Civil Twilight
Nautical Twilight
Astronomical Twilight
Moon
Length of Visible Light
Length of Day
Tomorrow will be .
, % of the Moon is Illuminated

Today's Extremes

State Highs State Lows

Community

WunderPhotos

Upload Photos

1,892,354 photos uploaded!

WunderBlog® & News

Nearby

Air Quality

  Air Quality AQ Index Pollutant
Not available.

Snow Depth

Station Depth Elevation

Earthquake Activity

City Distance Mag. Time & Date
Minimum magnitude displayed is 2.5.

Coastal Water Temperatures

Place Temperature

Stations

Nearby Weather Stations

Station Location Temp. Windchill Dew Point Humidity Wind Precip. Elev Updated Type
                   

Watches & Warnings

There are currently no watches in effect.